createdAt,value
2022-09-30T00:01:52.973Z,93.40
2022-09-30T00:04:25.774Z,94.41
2022-09-30T00:06:55.485Z,95.17
2022-09-30T00:09:23.881Z,95.15
2022-09-30T00:11:52.172Z,95.32
2022-09-30T00:14:23.578Z,95.89
2022-09-30T00:16:51.911Z,96.00
2022-09-30T00:19:20.136Z,96.08
2022-09-30T00:21:49.845Z,96.62
2022-09-30T00:24:18.370Z,97.40
2022-09-30T00:26:46.698Z,97.75
2022-09-30T00:29:15.031Z,98.67
2022-09-30T00:31:43.449Z,98.88
2022-09-30T00:34:12.236Z,99.01
2022-09-30T00:36:44.785Z,99.45
2022-09-30T00:39:16.601Z,100.00
2022-09-30T00:41:46.308Z,100.00
2022-09-30T00:44:46.837Z,100.00
2022-09-30T00:47:31.566Z,100.00
2022-09-30T00:50:03.118Z,100.00
2022-09-30T00:52:33.005Z,100.00
2022-09-30T00:55:05.836Z,100.00
2022-09-30T00:57:35.207Z,100.00
2022-09-30T01:00:07.300Z,100.00
2022-09-30T01:02:36.546Z,100.00
2022-09-30T01:05:05.041Z,100.00
2022-09-30T01:07:33.741Z,100.00
2022-09-30T01:10:04.212Z,100.00
2022-09-30T01:12:32.603Z,100.00
2022-09-30T01:15:01.960Z,100.00
2022-09-30T01:17:42.282Z,100.00
2022-09-30T01:20:38.646Z,100.00
2022-09-30T01:23:33.665Z,100.00
2022-09-30T01:26:25.051Z,100.00
2022-09-30T01:29:19.709Z,100.00
2022-09-30T01:31:58.381Z,100.00
2022-09-30T01:34:41.528Z,100.00
2022-09-30T01:37:18.708Z,100.00
2022-09-30T01:39:53.127Z,100.00
2022-09-30T01:42:29.196Z,100.00
2022-09-30T01:45:03.693Z,100.00
2022-09-30T01:47:36.362Z,100.00
2022-09-30T01:50:11.470Z,100.00
2022-09-30T01:52:47.717Z,100.00
2022-09-30T01:55:22.031Z,100.00
2022-09-30T01:57:58.514Z,100.00
2022-09-30T02:00:27.592Z,100.00
2022-09-30T02:03:02.646Z,100.00
2022-09-30T02:05:35.942Z,100.00
2022-09-30T02:08:09.613Z,100.00
2022-09-30T02:10:44.998Z,100.00
2022-09-30T02:13:18.856Z,100.00
2022-09-30T02:15:53.542Z,100.00
2022-09-30T02:18:29.680Z,100.00
2022-09-30T02:21:03.996Z,100.00
2022-09-30T02:23:37.007Z,100.00
2022-09-30T02:26:10.350Z,100.00
2022-09-30T02:28:43.681Z,100.00
2022-09-30T02:31:13.650Z,100.00
2022-09-30T02:33:50.951Z,100.00
2022-09-30T02:36:23.863Z,100.00
2022-09-30T02:39:00.417Z,100.00
2022-09-30T02:41:29.949Z,100.00
2022-09-30T02:43:59.317Z,100.00
2022-09-30T02:46:35.382Z,100.00
2022-09-30T02:49:12.735Z,100.00
2022-09-30T02:51:46.430Z,100.00
2022-09-30T02:54:21.533Z,100.00
2022-09-30T02:56:56.015Z,100.00
2022-09-30T02:59:25.506Z,100.00
2022-09-30T03:01:53.766Z,100.00
2022-09-30T03:04:27.804Z,100.00
2022-09-30T03:06:56.591Z,100.00
2022-09-30T03:09:27.202Z,100.00
2022-09-30T03:12:02.599Z,100.00
2022-09-30T03:14:48.347Z,100.00
2022-09-30T03:17:55.497Z,100.00
2022-09-30T03:20:38.549Z,100.00
2022-09-30T03:23:42.157Z,100.00
2022-09-30T03:26:27.738Z,100.00
2022-09-30T03:29:07.499Z,100.00
2022-09-30T03:31:43.444Z,100.00
2022-09-30T03:34:21.562Z,100.00
2022-09-30T03:37:04.359Z,100.00
2022-09-30T03:39:48.977Z,100.00
2022-09-30T03:42:27.093Z,100.00
2022-09-30T03:45:03.534Z,100.00
2022-09-30T03:47:36.058Z,100.00
2022-09-30T03:50:08.989Z,100.00
2022-09-30T03:52:38.686Z,100.00
2022-09-30T03:55:09.644Z,100.00
2022-09-30T03:57:37.669Z,100.00
2022-09-30T04:00:07.837Z,100.00
2022-09-30T04:02:36.821Z,100.00
2022-09-30T04:05:05.565Z,100.00
2022-09-30T04:07:36.146Z,100.00
2022-09-30T04:10:07.230Z,100.00
2022-09-30T04:12:35.193Z,100.00
2022-09-30T04:15:03.181Z,100.00
2022-09-30T04:17:32.660Z,100.00
2022-09-30T04:20:00.906Z,100.00
2022-09-30T04:22:28.923Z,100.00
2022-09-30T04:24:59.300Z,100.00
2022-09-30T04:27:30.345Z,100.00
2022-09-30T04:29:58.335Z,100.00
2022-09-30T04:32:30.232Z,100.00
2022-09-30T04:34:58.407Z,100.00
2022-09-30T04:37:26.364Z,100.00
2022-09-30T04:39:54.352Z,100.00
2022-09-30T04:42:22.470Z,100.00
2022-09-30T04:44:51.828Z,100.00
2022-09-30T04:47:19.790Z,100.00
2022-09-30T04:49:47.822Z,100.00
2022-09-30T04:52:15.776Z,100.00
2022-09-30T04:54:43.775Z,100.00
2022-09-30T04:57:14.087Z,100.00
2022-09-30T04:59:42.519Z,100.00
2022-09-30T05:02:12.951Z,100.00
2022-09-30T05:04:40.974Z,100.00
2022-09-30T05:07:09.235Z,100.00
2022-09-30T05:09:37.320Z,100.00
2022-09-30T05:12:05.754Z,100.00
2022-09-30T05:14:34.686Z,100.00
2022-09-30T05:17:03.159Z,100.00
2022-09-30T05:19:32.882Z,100.00
2022-09-30T05:22:01.269Z,100.00
2022-09-30T05:24:30.213Z,100.00
2022-09-30T05:26:58.252Z,100.00
2022-09-30T05:29:26.359Z,100.00
2022-09-30T05:31:54.655Z,100.00
2022-09-30T05:34:23.301Z,100.00
2022-09-30T05:36:53.286Z,100.00
2022-09-30T05:39:21.291Z,100.00
2022-09-30T05:41:49.327Z,100.00
2022-09-30T05:44:17.331Z,100.00
2022-09-30T05:46:45.459Z,100.00
2022-09-30T05:49:13.574Z,100.00
2022-09-30T05:51:41.633Z,100.00
2022-09-30T05:54:12.982Z,100.00
2022-09-30T05:56:41.039Z,100.00
2022-09-30T05:59:09.351Z,100.00
2022-09-30T06:01:38.924Z,100.00
2022-09-30T06:04:06.925Z,100.00
2022-09-30T06:06:35.254Z,100.00
2022-09-30T06:09:03.703Z,100.00
2022-09-30T06:11:33.166Z,100.00
2022-09-30T06:14:01.523Z,100.00
2022-09-30T06:16:29.581Z,100.00
2022-09-30T06:18:57.724Z,100.00
2022-09-30T06:21:29.543Z,100.00
2022-09-30T06:23:57.733Z,100.00
2022-09-30T06:26:25.762Z,100.00
2022-09-30T06:28:56.095Z,100.00
2022-09-30T06:31:24.224Z,100.00
2022-09-30T06:33:54.891Z,100.00
2022-09-30T06:36:22.923Z,100.00
2022-09-30T06:38:53.117Z,100.00
2022-09-30T06:41:22.019Z,100.00
2022-09-30T06:44:04.789Z,100.00
2022-09-30T06:46:39.592Z,100.00
2022-09-30T06:49:13.971Z,100.00
2022-09-30T06:51:42.434Z,100.00
2022-09-30T06:54:10.750Z,100.00
2022-09-30T06:56:39.694Z,100.00
2022-09-30T06:59:08.397Z,99.15
2022-09-30T07:01:39.102Z,98.80
2022-09-30T07:04:10.235Z,97.64
2022-09-30T07:06:39.567Z,96.30
2022-09-30T07:09:09.062Z,94.97
2022-09-30T07:11:38.556Z,94.64
2022-09-30T07:14:06.762Z,94.49
2022-09-30T07:16:35.512Z,93.16
2022-09-30T07:19:07.092Z,92.87
2022-09-30T07:21:35.578Z,92.50
2022-09-30T07:24:04.434Z,91.65
2022-09-30T07:26:32.864Z,90.67
2022-09-30T07:29:01.247Z,89.56
2022-09-30T07:31:34.586Z,88.21
2022-09-30T07:34:07.922Z,86.81
2022-09-30T07:36:37.937Z,85.71
2022-09-30T07:39:08.733Z,85.91
2022-09-30T07:41:39.472Z,83.39
2022-09-30T07:44:12.487Z,83.96
2022-09-30T07:46:40.728Z,83.01
2022-09-30T07:49:15.139Z,83.76
2022-09-30T07:51:45.679Z,83.51
2022-09-30T07:54:15.764Z,80.28
2022-09-30T07:57:09.361Z,79.40
2022-09-30T07:59:35.990Z,80.90
2022-09-30T08:02:05.412Z,78.78
2022-09-30T08:04:36.533Z,77.61
2022-09-30T08:07:06.229Z,77.22
2022-09-30T08:09:35.081Z,78.13
2022-09-30T08:12:03.992Z,77.54
2022-09-30T08:14:32.491Z,75.01
2022-09-30T08:17:00.908Z,76.44
2022-09-30T08:19:30.672Z,74.77
2022-09-30T08:22:00.226Z,72.57
2022-09-30T08:24:28.489Z,72.88
2022-09-30T08:26:57.343Z,73.24
2022-09-30T08:29:49.889Z,72.86
2022-09-30T08:32:13.565Z,70.28
2022-09-30T08:34:41.867Z,70.14
2022-09-30T08:37:11.278Z,70.31
2022-09-30T08:39:40.038Z,69.19
2022-09-30T08:42:42.397Z,69.29
2022-09-30T08:45:22.679Z,67.78
2022-09-30T08:47:58.251Z,68.17
2022-09-30T08:50:35.719Z,67.53
2022-09-30T08:53:10.378Z,66.59
2022-09-30T08:55:42.455Z,66.06
2022-09-30T08:58:20.733Z,65.68
2022-09-30T09:00:51.433Z,65.60
2022-09-30T09:03:20.814Z,66.69
2022-09-30T09:05:57.440Z,66.43
2022-09-30T09:08:34.253Z,66.54
2022-09-30T09:11:15.364Z,64.67
2022-09-30T09:13:51.847Z,64.63
2022-09-30T09:16:28.255Z,64.60
2022-09-30T09:19:05.011Z,64.77
2022-09-30T09:21:48.306Z,62.61
2022-09-30T09:24:21.466Z,62.10
2022-09-30T09:26:50.849Z,61.40
2022-09-30T09:29:33.619Z,59.28
2022-09-30T09:32:03.483Z,59.69
2022-09-30T09:34:35.847Z,60.25
2022-09-30T09:37:18.586Z,60.32
2022-09-30T09:40:13.157Z,58.65
2022-09-30T09:42:56.424Z,58.09
2022-09-30T09:45:30.375Z,56.97
2022-09-30T09:48:00.158Z,57.00
2022-09-30T09:50:36.721Z,57.59
2022-09-30T09:53:21.889Z,58.17
2022-09-30T09:55:57.224Z,57.20
2022-09-30T09:58:25.928Z,56.53
2022-09-30T10:01:13.861Z,57.59
2022-09-30T10:03:42.843Z,54.88
2022-09-30T10:06:12.933Z,53.95
2022-09-30T10:08:53.634Z,54.33
2022-09-30T10:11:25.840Z,53.73
2022-09-30T10:13:58.153Z,53.38
2022-09-30T10:16:35.497Z,51.89
2022-09-30T10:19:09.519Z,52.40
2022-09-30T10:21:37.815Z,52.04
2022-09-30T10:24:26.565Z,51.77
2022-09-30T10:26:56.912Z,51.94
2022-09-30T10:29:30.079Z,52.63
2022-09-30T10:31:59.987Z,52.32
2022-09-30T10:34:32.028Z,50.61
2022-09-30T10:37:03.184Z,50.14
2022-09-30T10:39:34.012Z,50.39
2022-09-30T10:42:07.360Z,50.84
2022-09-30T10:44:43.750Z,50.58
2022-09-30T10:47:18.116Z,48.46
2022-09-30T10:49:49.956Z,49.03
2022-09-30T10:52:20.330Z,48.95
2022-09-30T10:54:51.446Z,48.87
2022-09-30T10:57:24.605Z,49.14
2022-09-30T10:59:56.326Z,47.90
2022-09-30T11:02:30.925Z,47.82
2022-09-30T11:05:06.956Z,47.78
2022-09-30T11:07:41.271Z,47.25
2022-09-30T11:10:32.993Z,47.19
2022-09-30T11:13:08.674Z,45.43
2022-09-30T11:15:46.313Z,44.68
2022-09-30T11:18:20.479Z,44.96
2022-09-30T11:20:55.114Z,45.58
2022-09-30T11:23:30.644Z,45.78
2022-09-30T11:26:04.376Z,46.30
2022-09-30T11:28:48.416Z,46.83
2022-09-30T11:31:26.566Z,46.04
2022-09-30T11:34:09.517Z,45.08
2022-09-30T11:36:44.177Z,43.60
2022-09-30T11:39:33.205Z,42.86
2022-09-30T11:42:11.131Z,42.06
2022-09-30T11:44:44.422Z,42.68
2022-09-30T11:47:30.525Z,42.19
2022-09-30T11:50:20.307Z,42.56
2022-09-30T11:53:01.407Z,42.13
2022-09-30T11:55:54.608Z,42.14
2022-09-30T11:58:42.766Z,41.99
2022-09-30T12:01:22.531Z,42.51
2022-09-30T12:04:00.029Z,42.29
2022-09-30T12:06:35.013Z,42.59
2022-09-30T12:09:15.466Z,41.73
2022-09-30T12:11:50.827Z,42.13
2022-09-30T12:14:24.707Z,42.61
2022-09-30T12:16:56.818Z,42.86
2022-09-30T12:19:31.292Z,41.59
2022-09-30T12:22:06.950Z,41.91
2022-09-30T12:24:39.110Z,41.79
2022-09-30T12:27:16.832Z,41.04
2022-09-30T12:30:11.761Z,41.78
2022-09-30T12:33:15.916Z,41.51
2022-09-30T12:36:09.148Z,40.98
2022-09-30T12:38:58.955Z,41.45
2022-09-30T12:41:51.153Z,41.43
2022-09-30T12:44:45.715Z,41.46
2022-09-30T12:47:38.875Z,39.23
2022-09-30T12:50:10.364Z,39.94
2022-09-30T12:52:39.582Z,39.77
2022-09-30T12:55:11.978Z,40.15
2022-09-30T12:57:42.967Z,39.46
2022-09-30T13:00:18.245Z,38.60
2022-09-30T13:02:50.690Z,38.63
2022-09-30T13:05:58.184Z,38.99
2022-09-30T13:08:50.700Z,38.20
2022-09-30T13:11:33.310Z,38.24
2022-09-30T13:14:14.884Z,37.95
2022-09-30T13:17:03.098Z,38.20
2022-09-30T13:19:37.546Z,38.71
2022-09-30T13:22:54.463Z,38.74
2022-09-30T13:25:23.902Z,38.38
2022-09-30T13:27:55.634Z,38.60
2022-09-30T13:30:43.131Z,39.52
2022-09-30T13:33:32.953Z,39.87
2022-09-30T13:36:10.304Z,40.18
2022-09-30T13:38:41.588Z,39.51
2022-09-30T13:41:19.185Z,38.33
2022-09-30T13:43:53.749Z,37.64
2022-09-30T13:46:35.715Z,38.10
2022-09-30T13:49:12.342Z,37.61
2022-09-30T13:51:41.797Z,37.69
2022-09-30T13:54:18.266Z,37.54
2022-09-30T13:56:48.444Z,37.63
2022-09-30T13:59:32.161Z,39.01
2022-09-30T14:02:22.301Z,38.72
2022-09-30T14:05:29.026Z,38.99
2022-09-30T14:08:17.078Z,38.36
2022-09-30T14:11:00.914Z,38.56
2022-09-30T14:13:51.185Z,38.83
2022-09-30T14:16:58.628Z,38.76
2022-09-30T14:19:47.689Z,39.13
2022-09-30T14:22:18.939Z,38.32
2022-09-30T14:24:47.392Z,37.93
2022-09-30T14:27:45.514Z,37.61
2022-09-30T14:30:20.474Z,37.81
2022-09-30T14:32:50.906Z,37.94
2022-09-30T14:38:17.371Z,38.91
2022-09-30T14:40:52.226Z,39.16
2022-09-30T14:43:24.554Z,39.41
2022-09-30T14:46:00.291Z,38.64
2022-09-30T14:48:32.867Z,38.66
2022-09-30T14:51:05.784Z,38.84
2022-09-30T14:53:35.987Z,39.04
2022-09-30T14:56:21.925Z,39.64
2022-09-30T14:58:52.532Z,40.12
2022-09-30T15:01:26.212Z,39.89
2022-09-30T15:03:58.354Z,40.42
2022-09-30T15:06:31.484Z,39.33
2022-09-30T15:09:05.757Z,39.40
2022-09-30T15:11:39.550Z,38.90
2022-09-30T15:14:15.317Z,38.72
2022-09-30T15:16:49.386Z,38.47
2022-09-30T15:19:21.610Z,39.37
2022-09-30T15:21:51.218Z,39.85
2022-09-30T15:24:21.857Z,39.40
2022-09-30T15:26:52.579Z,39.46
2022-09-30T15:29:21.013Z,38.91
2022-09-30T15:31:57.502Z,38.70
2022-09-30T15:34:28.818Z,39.33
2022-09-30T15:37:06.597Z,39.23
2022-09-30T15:39:55.329Z,39.48
2022-09-30T15:42:36.613Z,39.50
2022-09-30T15:45:09.287Z,39.22
2022-09-30T15:47:55.895Z,39.86
2022-09-30T15:50:41.604Z,41.06
2022-09-30T15:53:21.432Z,43.04
2022-09-30T15:55:55.778Z,42.78
2022-09-30T15:58:38.171Z,43.14
2022-09-30T16:01:19.663Z,42.58
2022-09-30T16:03:56.787Z,43.78
2022-09-30T16:06:29.695Z,44.39
2022-09-30T16:09:08.979Z,45.58
2022-09-30T16:11:41.151Z,46.29
2022-09-30T16:14:11.555Z,46.73
2022-09-30T16:16:40.513Z,46.76
2022-09-30T16:19:18.544Z,47.14
2022-09-30T16:21:51.318Z,47.81
2022-09-30T16:24:50.906Z,48.74
2022-09-30T16:27:37.298Z,49.34
2022-09-30T16:30:09.717Z,49.85
2022-09-30T16:32:42.025Z,50.56
2022-09-30T16:35:19.934Z,50.94
2022-09-30T16:37:48.899Z,51.43
2022-09-30T16:40:23.709Z,52.05
2022-09-30T16:42:54.950Z,52.57
2022-09-30T16:45:23.682Z,53.50
2022-09-30T16:47:51.952Z,53.80
2022-09-30T16:50:27.233Z,54.52
2022-09-30T16:52:56.424Z,55.15
2022-09-30T16:55:25.742Z,55.84
2022-09-30T16:58:06.735Z,55.97
2022-09-30T17:00:36.081Z,57.06
2022-09-30T17:03:04.152Z,57.50
2022-09-30T17:05:33.613Z,57.84
2022-09-30T17:08:02.307Z,58.19
2022-09-30T17:10:32.475Z,58.87
2022-09-30T17:13:01.881Z,59.03
2022-09-30T17:15:31.162Z,59.26
2022-09-30T17:17:59.787Z,59.53
2022-09-30T17:20:28.065Z,59.95
2022-09-30T17:22:57.458Z,60.36
2022-09-30T17:25:25.422Z,60.51
2022-09-30T17:27:54.373Z,60.58
2022-09-30T17:30:22.510Z,60.73
2022-09-30T17:32:50.590Z,60.75
2022-09-30T17:35:18.997Z,61.52
2022-09-30T17:37:48.009Z,61.70
2022-09-30T17:40:35.394Z,61.00
2022-09-30T17:43:11.081Z,60.97
2022-09-30T17:45:41.567Z,60.83
2022-09-30T17:48:10.403Z,61.13
2022-09-30T17:50:39.729Z,61.17
2022-09-30T17:53:08.002Z,61.64
2022-09-30T17:55:37.499Z,62.24
2022-09-30T17:58:05.507Z,62.51
2022-09-30T18:00:33.987Z,62.63
2022-09-30T18:03:02.895Z,62.52
2022-09-30T18:05:32.009Z,62.34
2022-09-30T18:08:01.185Z,62.25
2022-09-30T18:10:29.531Z,62.31
2022-09-30T18:12:59.991Z,61.99
2022-09-30T18:15:28.291Z,62.30
2022-09-30T18:17:56.820Z,62.50
2022-09-30T18:20:25.703Z,62.23
2022-09-30T18:22:54.114Z,62.20
2022-09-30T18:25:23.404Z,62.49
2022-09-30T18:27:54.996Z,62.88
2022-09-30T18:30:25.088Z,63.42
2022-09-30T18:32:55.662Z,64.07
2022-09-30T18:35:25.768Z,64.49
2022-09-30T18:37:56.856Z,65.08
2022-09-30T18:40:27.388Z,65.69
2022-09-30T18:42:58.692Z,66.28
2022-09-30T18:45:33.738Z,66.51
2022-09-30T18:48:02.297Z,67.31
2022-09-30T18:50:31.089Z,67.67
2022-09-30T18:53:05.648Z,68.09
2022-09-30T18:55:39.249Z,68.54
2022-09-30T18:58:07.679Z,68.55
2022-09-30T19:00:38.794Z,68.90
2022-09-30T19:03:11.102Z,69.07
2022-09-30T19:05:39.700Z,69.35
2022-09-30T19:08:08.663Z,69.56
2022-09-30T19:10:41.503Z,70.19
2022-09-30T19:13:10.700Z,70.24
2022-09-30T19:15:40.842Z,70.84
2022-09-30T19:18:10.550Z,71.04
2022-09-30T19:20:38.609Z,70.80
2022-09-30T19:23:10.699Z,70.13
2022-09-30T19:25:39.996Z,70.37
2022-09-30T19:28:08.114Z,70.51
2022-09-30T19:30:39.927Z,70.55
2022-09-30T19:33:09.897Z,70.71
2022-09-30T19:35:40.936Z,70.71
2022-09-30T19:38:09.407Z,70.25
2022-09-30T19:40:37.699Z,70.10
2022-09-30T19:43:08.218Z,69.86
2022-09-30T19:45:36.324Z,70.10
2022-09-30T19:48:04.339Z,70.23
2022-09-30T19:50:36.914Z,70.79
2022-09-30T19:53:04.935Z,70.91
2022-09-30T19:55:45.253Z,71.20
2022-09-30T19:58:17.050Z,71.14
2022-09-30T20:00:47.033Z,70.61
2022-09-30T20:03:15.366Z,70.70
2022-09-30T20:05:44.872Z,70.88
2022-09-30T20:08:12.860Z,71.19
2022-09-30T20:10:40.974Z,71.39
2022-09-30T20:13:09.167Z,71.40
2022-09-30T20:15:53.259Z,71.58
2022-09-30T20:18:21.995Z,72.11
2022-09-30T20:20:52.943Z,72.29
2022-09-30T20:23:20.914Z,72.29
2022-09-30T20:25:49.516Z,72.09
2022-09-30T20:28:17.536Z,72.38
2022-09-30T20:30:46.055Z,72.77
2022-09-30T20:33:16.528Z,73.05
2022-09-30T20:35:44.984Z,73.47
2022-09-30T20:38:17.552Z,74.05
2022-09-30T20:40:46.129Z,74.24
2022-09-30T20:43:14.816Z,74.93
2022-09-30T20:45:42.878Z,75.71
2022-09-30T20:48:10.904Z,75.81
2022-09-30T20:50:43.538Z,76.55
2022-09-30T20:53:14.823Z,76.95
2022-09-30T20:55:44.586Z,77.06
2022-09-30T20:58:13.912Z,76.22
2022-09-30T21:00:44.012Z,76.40
2022-09-30T21:03:15.321Z,76.93
2022-09-30T21:05:54.637Z,77.08
2022-09-30T21:08:24.455Z,77.19
2022-09-30T21:10:52.859Z,77.00
2022-09-30T21:13:20.906Z,76.59
2022-09-30T21:15:48.923Z,75.85
2022-09-30T21:18:16.919Z,75.70
2022-09-30T21:20:45.286Z,75.09
2022-09-30T21:23:17.214Z,74.82
2022-09-30T21:25:49.171Z,75.11
2022-09-30T21:28:17.292Z,74.87
2022-09-30T21:30:45.284Z,75.16
2022-09-30T21:33:13.289Z,75.49
2022-09-30T21:35:41.521Z,75.95
2022-09-30T21:38:09.534Z,76.25
2022-09-30T21:40:39.043Z,75.53
2022-09-30T21:43:08.556Z,75.52
2022-09-30T21:45:36.681Z,75.85
2022-09-30T21:48:06.966Z,76.01
2022-09-30T21:50:35.945Z,75.86
2022-09-30T21:53:04.648Z,76.35
2022-09-30T21:55:34.659Z,76.09
2022-09-30T21:58:02.795Z,76.59
2022-09-30T22:00:32.164Z,76.69
2022-09-30T22:03:00.543Z,76.84
2022-09-30T22:05:28.573Z,76.84
2022-09-30T22:07:58.505Z,77.19
2022-09-30T22:10:26.673Z,77.25
2022-09-30T22:12:54.700Z,77.29
2022-09-30T22:15:22.696Z,77.19
2022-09-30T22:17:53.722Z,77.70
2022-09-30T22:20:22.310Z,77.25
2022-09-30T22:22:51.273Z,77.98
2022-09-30T22:25:20.571Z,78.75
2022-09-30T22:27:48.769Z,79.27
2022-09-30T22:30:17.024Z,80.40
2022-09-30T22:32:45.136Z,81.11
2022-09-30T22:35:32.174Z,80.70
2022-09-30T22:38:17.239Z,81.08
2022-09-30T22:40:45.735Z,79.79
2022-09-30T22:43:13.848Z,79.96
2022-09-30T22:45:44.177Z,80.32
2022-09-30T22:48:12.174Z,80.73
2022-09-30T22:50:41.548Z,79.99
2022-09-30T22:53:09.606Z,78.52
2022-09-30T22:55:38.140Z,78.34
2022-09-30T22:58:07.079Z,77.98
2022-09-30T23:00:35.103Z,77.65
2022-09-30T23:03:03.738Z,77.36
2022-09-30T23:05:31.698Z,78.02
2022-09-30T23:08:01.225Z,78.04
2022-09-30T23:10:29.447Z,78.69
2022-09-30T23:12:57.827Z,79.16
2022-09-30T23:15:26.030Z,79.74
2022-09-30T23:17:54.157Z,80.25
2022-09-30T23:20:22.222Z,80.69
2022-09-30T23:22:50.224Z,81.15
2022-09-30T23:25:19.652Z,81.37
2022-09-30T23:27:49.110Z,81.85
2022-09-30T23:30:17.533Z,82.16
2022-09-30T23:32:45.621Z,82.64
2022-09-30T23:35:14.197Z,83.81
2022-09-30T23:37:42.232Z,84.19
2022-09-30T23:40:11.142Z,83.92
2022-09-30T23:42:40.496Z,84.76
2022-09-30T23:45:10.045Z,84.90
2022-09-30T23:47:38.245Z,85.17
2022-09-30T23:50:10.700Z,85.86
2022-09-30T23:52:38.701Z,86.39
2022-09-30T23:55:07.769Z,87.22
2022-09-30T23:57:36.350Z,87.19
